createdAt,value
2019-03-26T00:02:07.650Z,101923.95
2019-03-26T00:04:36.786Z,101921.77
2019-03-26T00:07:09.248Z,101920.89
2019-03-26T00:09:38.685Z,101927.45
2019-03-26T00:12:11.391Z,101924.38
2019-03-26T00:14:44.163Z,101928.32
2019-03-26T00:17:13.517Z,101930.09
2019-03-26T00:19:42.661Z,101926.58
2019-03-26T00:22:11.782Z,101933.14
2019-03-26T00:24:44.715Z,101929.66
2019-03-26T00:27:17.529Z,101932.71
2019-03-26T00:29:46.976Z,101934.91
2019-03-26T00:32:16.779Z,101936.23
2019-03-26T00:34:46.244Z,101937.95
2019-03-26T00:37:15.365Z,101937.09
2019-03-26T00:39:46.415Z,101937.52
2019-03-26T00:42:16.251Z,101937.97
2019-03-26T00:44:45.388Z,101945.84
2019-03-26T00:47:14.516Z,101938.83
2019-03-26T00:49:46.745Z,101944.11
2019-03-26T00:52:15.853Z,101944.50
2019-03-26T00:54:47.762Z,101952.39
2019-03-26T00:57:18.579Z,101951.95
2019-03-26T00:59:47.709Z,101963.77
2019-03-26T01:02:17.574Z,101957.62
2019-03-26T01:04:47.458Z,101955.89
2019-03-26T01:07:16.866Z,101960.27
2019-03-26T01:09:49.032Z,101962.89
2019-03-26T01:12:18.437Z,101962.00
2019-03-26T01:14:47.923Z,101965.08
2019-03-26T01:17:17.043Z,101960.70
2019-03-26T01:19:47.146Z,101962.03
2019-03-26T01:22:16.730Z,101965.96
2019-03-26T01:24:45.850Z,101958.52
2019-03-26T01:27:18.089Z,101965.95
2019-03-26T01:29:50.779Z,101960.27
2019-03-26T01:32:20.164Z,101955.48
2019-03-26T01:34:50.117Z,101962.88
2019-03-26T01:37:22.809Z,101962.90
2019-03-26T01:39:55.247Z,101964.67
2019-03-26T01:42:27.734Z,101969.93
2019-03-26T01:44:59.194Z,101967.70
2019-03-26T01:47:28.975Z,101961.61
2019-03-26T01:49:58.825Z,101970.38
2019-03-26T01:52:28.229Z,101973.89
2019-03-26T01:54:58.938Z,101965.59
2019-03-26T01:57:31.436Z,101966.43
2019-03-26T02:00:06.291Z,101970.39
2019-03-26T02:02:35.404Z,101979.14
2019-03-26T02:05:05.635Z,101970.85
2019-03-26T02:07:35.093Z,101976.52
2019-03-26T02:10:06.895Z,101978.27
2019-03-26T02:12:39.295Z,101979.13
2019-03-26T02:15:09.825Z,101983.06
2019-03-26T02:17:39.100Z,101981.76
2019-03-26T02:20:08.223Z,101979.57
2019-03-26T02:22:42.592Z,101975.66
2019-03-26T02:25:12.057Z,101970.40
2019-03-26T02:27:44.247Z,101978.27
2019-03-26T02:30:14.135Z,101983.08
2019-03-26T02:32:43.665Z,101972.59
2019-03-26T02:35:18.101Z,101980.90
2019-03-26T02:37:46.567Z,101976.09
2019-03-26T02:40:18.989Z,101985.73
2019-03-26T02:42:48.186Z,101983.97
2019-03-26T02:45:20.247Z,101988.77
2019-03-26T02:47:49.970Z,101990.95
2019-03-26T02:50:24.544Z,101991.41
2019-03-26T02:52:56.732Z,101996.63
2019-03-26T02:55:26.516Z,101998.81
2019-03-26T02:57:57.820Z,101997.08
2019-03-26T03:00:26.965Z,102001.00
2019-03-26T03:02:56.839Z,102000.56
2019-03-26T03:05:35.253Z,101998.38
2019-03-26T03:07:57.116Z,101994.45
2019-03-26T03:10:29.318Z,101992.69
2019-03-26T03:12:58.485Z,101992.26
2019-03-26T03:15:30.724Z,101995.76
2019-03-26T03:17:59.917Z,101992.27
2019-03-26T03:20:29.038Z,101991.38
2019-03-26T03:23:01.721Z,101983.51
2019-03-26T03:25:36.141Z,101991.41
2019-03-26T03:28:05.262Z,101985.28
2019-03-26T03:30:38.067Z,101993.14
2019-03-26T03:33:13.513Z,101986.13
2019-03-26T03:35:52.022Z,101990.53
2019-03-26T03:38:14.328Z,101999.71
2019-03-26T03:40:47.573Z,101999.27
2019-03-26T03:43:18.663Z,101995.32
2019-03-26T03:45:52.070Z,102003.64
2019-03-26T03:48:22.052Z,102002.32
2019-03-26T03:50:51.191Z,102002.77
2019-03-26T03:53:26.695Z,102001.44
2019-03-26T03:55:56.879Z,102008.88
2019-03-26T03:58:26.018Z,102011.07
2019-03-26T04:00:55.544Z,102015.00
2019-03-26T04:03:25.048Z,102015.00
2019-03-26T04:06:08.119Z,102010.63
2019-03-26T04:08:25.007Z,102015.00
2019-03-26T04:10:54.109Z,102022.42
2019-03-26T04:13:23.526Z,102023.30
2019-03-26T04:15:53.556Z,102024.18
2019-03-26T04:18:26.167Z,102008.86
2019-03-26T04:20:55.661Z,102004.06
2019-03-26T04:23:28.044Z,102003.20
2019-03-26T04:25:59.923Z,102001.89
2019-03-26T04:28:29.020Z,101999.69
2019-03-26T04:31:01.608Z,102001.44
2019-03-26T04:33:36.039Z,101998.82
2019-03-26T04:36:05.656Z,101994.02
2019-03-26T04:38:35.252Z,101990.52
2019-03-26T04:41:07.097Z,101996.63
2019-03-26T04:43:36.615Z,101993.14
2019-03-26T04:46:11.951Z,102001.88
2019-03-26T04:48:45.094Z,101999.70
2019-03-26T04:51:20.802Z,101998.39
2019-03-26T04:53:50.289Z,101995.77
2019-03-26T04:56:19.445Z,101991.83
2019-03-26T04:58:48.808Z,102000.13
2019-03-26T05:01:17.967Z,102006.25
2019-03-26T05:03:51.013Z,102007.99
2019-03-26T05:06:21.467Z,102016.73
2019-03-26T05:08:51.335Z,102015.00
2019-03-26T05:11:25.507Z,102012.80
2019-03-26T05:13:55.259Z,102008.00
2019-03-26T05:16:26.607Z,102000.14
2019-03-26T05:18:56.373Z,102007.11
2019-03-26T05:21:25.521Z,102011.50
2019-03-26T05:23:54.887Z,102017.61
2019-03-26T05:26:27.614Z,102016.30
2019-03-26T05:28:57.674Z,102024.16
2019-03-26T05:31:27.130Z,102025.47
2019-03-26T05:33:59.587Z,102016.73
2019-03-26T05:36:32.449Z,102018.92
2019-03-26T05:39:02.289Z,102025.03
2019-03-26T05:41:34.829Z,102021.53
2019-03-26T05:44:04.362Z,102024.61
2019-03-26T05:46:33.486Z,102024.62
2019-03-26T05:49:02.903Z,102021.11
2019-03-26T05:51:36.002Z,102024.59
2019-03-26T05:54:05.586Z,102024.62
2019-03-26T05:56:34.735Z,102023.32
2019-03-26T05:59:10.111Z,102036.87
2019-03-26T06:01:39.452Z,102032.05
2019-03-26T06:04:20.917Z,102032.94
2019-03-26T06:07:03.919Z,102022.00
2019-03-26T06:09:22.125Z,102017.63
2019-03-26T06:11:54.857Z,102013.24
2019-03-26T06:14:30.494Z,102012.41
2019-03-26T06:16:59.623Z,102010.20
2019-03-26T06:19:29.049Z,102008.00
2019-03-26T06:21:59.768Z,102009.31
2019-03-26T06:24:31.287Z,102016.32
2019-03-26T06:27:04.081Z,102011.95
2019-03-26T06:29:33.627Z,102020.70
2019-03-26T06:32:03.397Z,102014.14
2019-03-26T06:34:35.637Z,102015.00
2019-03-26T06:37:17.138Z,102018.51
2019-03-26T06:39:36.907Z,102019.39
2019-03-26T06:42:06.215Z,102021.55
2019-03-26T06:44:38.877Z,102019.37
2019-03-26T06:47:11.159Z,102015.88
2019-03-26T06:49:40.279Z,102011.94
2019-03-26T06:52:09.389Z,102001.86
2019-03-26T06:54:38.692Z,102005.34
2019-03-26T06:57:11.421Z,102010.17
2019-03-26T06:59:40.813Z,102004.92
2019-03-26T07:02:10.279Z,101999.24
2019-03-26T07:04:51.527Z,102011.02
2019-03-26T07:07:31.536Z,102014.52
2019-03-26T07:09:53.340Z,102011.89
2019-03-26T07:12:22.477Z,102009.70
2019-03-26T07:14:54.719Z,102003.97
2019-03-26T07:17:23.876Z,101999.17
2019-03-26T07:19:53.005Z,102000.94
2019-03-26T07:22:22.808Z,102007.45
2019-03-26T07:24:51.915Z,102016.59
2019-03-26T07:27:21.834Z,102022.72
2019-03-26T07:29:54.928Z,102020.54
2019-03-26T07:32:27.446Z,102030.22
2019-03-26T07:34:57.248Z,102033.29
2019-03-26T07:37:26.680Z,102029.31
2019-03-26T07:40:00.227Z,102042.00
2019-03-26T07:42:28.792Z,102037.66
2019-03-26T07:45:00.837Z,102044.68
2019-03-26T07:47:29.951Z,102043.34
2019-03-26T07:49:59.822Z,102056.05
2019-03-26T07:52:32.473Z,102056.03
2019-03-26T07:55:01.848Z,102069.14
2019-03-26T07:57:31.290Z,102061.27
2019-03-26T08:00:01.041Z,102056.05
2019-03-26T08:02:33.046Z,102059.96
2019-03-26T08:05:05.292Z,102053.34
2019-03-26T08:07:34.401Z,102062.05
2019-03-26T08:10:04.204Z,102063.71
2019-03-26T08:12:34.068Z,102052.78
2019-03-26T08:15:09.701Z,102069.37
2019-03-26T08:17:45.204Z,102059.73
2019-03-26T08:20:13.404Z,102051.45
2019-03-26T08:22:42.513Z,102059.36
2019-03-26T08:25:13.847Z,102058.05
2019-03-26T08:27:42.958Z,102058.91
2019-03-26T08:30:13.663Z,102053.69
2019-03-26T08:32:42.760Z,102051.94
2019-03-26T08:35:11.881Z,102053.23
2019-03-26T08:37:41.358Z,102057.23
2019-03-26T08:40:10.512Z,102068.10
2019-03-26T08:42:39.629Z,102070.39
2019-03-26T08:45:12.169Z,102074.77
2019-03-26T08:47:41.586Z,102064.71
2019-03-26T08:50:14.226Z,102059.02
2019-03-26T08:52:43.367Z,102049.72
2019-03-26T08:55:15.944Z,102050.06
2019-03-26T08:57:45.061Z,102045.63
2019-03-26T09:00:20.034Z,102045.44
2019-03-26T09:02:49.143Z,102051.03
2019-03-26T09:05:19.033Z,102046.71
2019-03-26T09:07:51.525Z,102042.62
2019-03-26T09:10:24.316Z,102048.16
2019-03-26T09:12:53.418Z,102040.14
2019-03-26T09:15:23.633Z,102036.55
2019-03-26T09:17:53.042Z,102046.39
2019-03-26T09:20:22.146Z,102033.53
2019-03-26T09:22:51.958Z,102035.69
2019-03-26T09:25:24.335Z,102024.75
2019-03-26T09:27:53.430Z,102026.75
2019-03-26T09:30:25.867Z,102036.13
2019-03-26T09:32:55.985Z,102023.07
2019-03-26T09:35:25.325Z,102016.75
2019-03-26T09:37:56.387Z,102011.78
2019-03-26T09:40:28.968Z,102011.52
2019-03-26T09:43:01.417Z,101997.66
2019-03-26T09:45:30.539Z,101994.25
2019-03-26T09:47:59.657Z,101987.20
2019-03-26T09:50:39.155Z,101987.83
2019-03-26T09:53:15.682Z,101977.89
2019-03-26T09:55:45.103Z,101973.11
2019-03-26T09:58:17.164Z,101969.63
2019-03-26T10:00:49.600Z,101963.25
2019-03-26T10:03:18.851Z,101974.41
2019-03-26T10:05:47.956Z,101975.34
2019-03-26T10:08:17.980Z,101975.27
2019-03-26T10:10:47.197Z,101977.06
2019-03-26T10:13:16.459Z,101974.45
2019-03-26T10:15:46.295Z,101973.42
2019-03-26T10:18:15.414Z,101971.50
2019-03-26T10:20:44.556Z,101973.52
2019-03-26T10:23:14.026Z,101981.98
2019-03-26T10:25:46.461Z,101973.16
2019-03-26T10:28:15.591Z,101973.88
2019-03-26T10:30:45.033Z,101974.96
2019-03-26T10:33:14.158Z,101968.23
2019-03-26T10:35:46.628Z,101969.23
2019-03-26T10:38:16.126Z,101972.69
2019-03-26T10:40:45.237Z,101973.19
2019-03-26T10:43:17.835Z,101970.59
2019-03-26T10:45:46.963Z,101971.92
2019-03-26T10:48:16.396Z,101983.39
2019-03-26T10:50:45.882Z,101978.95
2019-03-26T10:53:15.191Z,101987.73
2019-03-26T10:55:44.638Z,101985.08
2019-03-26T10:58:14.094Z,101982.42
2019-03-26T11:00:43.420Z,101984.48
2019-03-26T11:03:13.327Z,101989.28
2019-03-26T11:05:42.816Z,101980.35
2019-03-26T11:08:11.914Z,101980.72
2019-03-26T11:10:41.021Z,101980.66
2019-03-26T11:13:10.152Z,101979.03
2019-03-26T11:15:42.701Z,101984.80
2019-03-26T11:18:12.410Z,101972.49
2019-03-26T11:20:41.901Z,101978.62
2019-03-26T11:23:15.316Z,101988.26
2019-03-26T11:25:44.425Z,101992.28
2019-03-26T11:28:13.543Z,101988.86
2019-03-26T11:30:42.650Z,101992.73
2019-03-26T11:33:14.472Z,101986.14
2019-03-26T11:35:43.588Z,101934.63
2019-03-26T11:38:14.525Z,101990.52
2019-03-26T11:40:46.705Z,101989.14
2019-03-26T11:43:19.071Z,101985.60
2019-03-26T11:45:51.520Z,101984.14
2019-03-26T11:48:20.718Z,101963.78
2019-03-26T11:50:50.506Z,101963.78
2019-03-26T11:53:20.435Z,101976.38
2019-03-26T11:55:49.523Z,101963.69
2019-03-26T11:58:30.256Z,101967.59
2019-03-26T12:00:52.427Z,101967.44
2019-03-26T12:03:24.608Z,101969.10
2019-03-26T12:05:57.485Z,101963.98
2019-03-26T12:08:29.753Z,101963.98
2019-03-26T12:10:58.878Z,101960.11
2019-03-26T12:13:34.012Z,101958.51
2019-03-26T12:16:03.408Z,101958.16
2019-03-26T12:18:32.902Z,101956.06
2019-03-26T12:21:05.672Z,101957.83
2019-03-26T12:23:34.792Z,101956.16
2019-03-26T12:26:10.915Z,101957.95
2019-03-26T12:28:41.330Z,101963.58
2019-03-26T12:31:10.445Z,101959.13
2019-03-26T12:33:39.578Z,101960.96
2019-03-26T12:36:08.678Z,101968.87
2019-03-26T12:38:46.891Z,101977.23
2019-03-26T12:41:19.106Z,101965.91
2019-03-26T12:43:50.945Z,101977.70
2019-03-26T12:46:20.410Z,101975.17
2019-03-26T12:48:49.932Z,101971.55
2019-03-26T12:51:19.642Z,101967.13
2019-03-26T12:53:49.139Z,101971.48
2019-03-26T12:56:19.881Z,101970.91
2019-03-26T12:58:48.991Z,101970.47
2019-03-26T13:01:21.146Z,101974.01
2019-03-26T13:03:51.406Z,101972.20
2019-03-26T13:06:21.079Z,101970.08
2019-03-26T13:08:50.174Z,101960.95
2019-03-26T13:11:19.266Z,101968.80
2019-03-26T13:13:48.420Z,101964.98
2019-03-26T13:16:17.524Z,101967.20
2019-03-26T13:18:46.689Z,101960.97
2019-03-26T13:21:16.441Z,101969.23
2019-03-26T13:23:49.034Z,101963.18
2019-03-26T13:26:21.778Z,101968.85
2019-03-26T13:28:51.238Z,101972.84
2019-03-26T13:31:20.364Z,101968.80
2019-03-26T13:33:49.591Z,101972.41
2019-03-26T13:36:18.696Z,101971.12
2019-03-26T13:38:48.150Z,101969.29
2019-03-26T13:41:20.454Z,101971.97
2019-03-26T13:43:49.587Z,101964.52
2019-03-26T13:46:19.414Z,101966.95
2019-03-26T13:48:48.495Z,101971.90
2019-03-26T13:51:17.607Z,101972.72
2019-03-26T13:53:47.083Z,101976.67
2019-03-26T13:56:16.493Z,101974.91
2019-03-26T13:58:45.906Z,101973.66
2019-03-26T14:01:15.008Z,101968.46
2019-03-26T14:03:44.107Z,101974.57
2019-03-26T14:06:13.617Z,101980.59
2019-03-26T14:08:43.038Z,101971.95
2019-03-26T14:11:13.058Z,101972.34
2019-03-26T14:13:42.141Z,101984.70
2019-03-26T14:16:14.752Z,101979.44
2019-03-26T14:18:49.012Z,101993.08
2019-03-26T14:21:18.118Z,101991.77
2019-03-26T14:23:50.938Z,101986.09
2019-03-26T14:26:22.753Z,101982.13
2019-03-26T14:28:52.288Z,101972.39
2019-03-26T14:31:23.649Z,101975.81
2019-03-26T14:33:55.751Z,101981.53
2019-03-26T14:36:30.378Z,101973.61
2019-03-26T14:39:04.523Z,101980.16
2019-03-26T14:41:33.637Z,101984.03
2019-03-26T14:44:11.574Z,101987.53
2019-03-26T14:46:41.763Z,101978.64
2019-03-26T14:49:14.736Z,101988.84
2019-03-26T14:51:43.835Z,101988.38
2019-03-26T14:54:13.337Z,101986.66
2019-03-26T14:56:45.876Z,101976.57
2019-03-26T14:59:18.397Z,101979.28
2019-03-26T15:01:48.246Z,101981.48
2019-03-26T15:04:17.501Z,101974.02
2019-03-26T15:06:46.601Z,101981.50
2019-03-26T15:09:17.370Z,101974.89
2019-03-26T15:11:46.852Z,101976.63
2019-03-26T15:14:16.243Z,101973.58
2019-03-26T15:16:45.362Z,101990.63
2019-03-26T15:19:14.488Z,101988.02
2019-03-26T15:21:43.644Z,101985.41
2019-03-26T15:24:12.735Z,101982.67
2019-03-26T15:26:41.844Z,101982.20
2019-03-26T15:29:12.234Z,101986.14
2019-03-26T15:31:41.637Z,101986.55
2019-03-26T15:34:12.700Z,101984.24
2019-03-26T15:36:41.819Z,101981.10
2019-03-26T15:39:10.929Z,101992.36
2019-03-26T15:41:40.031Z,101992.39
2019-03-26T15:44:09.119Z,101990.27
2019-03-26T15:46:38.239Z,101996.48
2019-03-26T15:49:07.993Z,101996.91
2019-03-26T15:51:37.433Z,101994.16
2019-03-26T15:54:06.569Z,101996.79
2019-03-26T15:56:35.685Z,101994.49
2019-03-26T15:59:04.766Z,101996.36
2019-03-26T16:01:37.286Z,101997.20
2019-03-26T16:04:06.683Z,102006.31
2019-03-26T16:06:36.173Z,102000.98
2019-03-26T16:09:09.462Z,102002.36
2019-03-26T16:11:38.616Z,101993.08
2019-03-26T16:14:08.045Z,101993.62
2019-03-26T16:16:37.769Z,101991.01
2019-03-26T16:19:12.365Z,101990.98
2019-03-26T16:21:41.869Z,101982.67
2019-03-26T16:24:13.411Z,101996.30
2019-03-26T16:26:42.871Z,101990.60
2019-03-26T16:29:11.965Z,101990.59
2019-03-26T16:31:41.339Z,101995.05
2019-03-26T16:34:10.639Z,101990.13
2019-03-26T16:36:58.494Z,101987.14
2019-03-26T16:39:16.254Z,101989.75
2019-03-26T16:41:49.179Z,101989.31
2019-03-26T16:44:19.451Z,101994.67
2019-03-26T16:46:48.574Z,101989.30
2019-03-26T16:49:21.260Z,101986.28
2019-03-26T16:51:50.387Z,101984.18
2019-03-26T16:54:20.750Z,101987.67
2019-03-26T16:56:49.882Z,101989.41
2019-03-26T16:59:19.577Z,101991.19
2019-03-26T17:01:49.205Z,101994.30
2019-03-26T17:04:18.484Z,101994.70
2019-03-26T17:06:50.886Z,101993.48
2019-03-26T17:09:20.068Z,101996.54
2019-03-26T17:12:02.201Z,102000.52
2019-03-26T17:14:20.692Z,102000.11
2019-03-26T17:16:49.923Z,102004.53
2019-03-26T17:19:19.474Z,101992.78
2019-03-26T17:21:49.224Z,102001.62
2019-03-26T17:24:21.798Z,102011.31
2019-03-26T17:26:51.773Z,102010.45
2019-03-26T17:29:20.992Z,102009.58
2019-03-26T17:31:50.457Z,102011.77
2019-03-26T17:34:19.612Z,102016.22
2019-03-26T17:36:48.824Z,102016.25
2019-03-26T17:39:21.458Z,102013.17
2019-03-26T17:41:50.682Z,102020.16
2019-03-26T17:44:19.863Z,102015.76
2019-03-26T17:46:48.989Z,102014.95
2019-03-26T17:49:18.572Z,102020.20
2019-03-26T17:51:47.804Z,102018.00
2019-03-26T17:54:17.399Z,102022.85
2019-03-26T17:56:47.539Z,102021.55
2019-03-26T17:59:16.847Z,102025.50
2019-03-26T18:01:48.713Z,102026.39
2019-03-26T18:04:18.534Z,102036.45
2019-03-26T18:06:51.234Z,102042.59
2019-03-26T18:09:23.982Z,102038.65
2019-03-26T18:11:53.255Z,102042.14
2019-03-26T18:14:22.519Z,102044.39
2019-03-26T18:16:51.768Z,102043.52
2019-03-26T18:19:21.259Z,102047.88
2019-03-26T18:21:51.998Z,102053.16
2019-03-26T18:24:23.389Z,102053.17
2019-03-26T18:26:52.761Z,102053.16
2019-03-26T18:29:21.978Z,102056.65
2019-03-26T18:31:51.358Z,102059.73
2019-03-26T18:34:21.363Z,102061.04
2019-03-26T18:36:50.953Z,102065.02
2019-03-26T18:39:20.625Z,102060.63
2019-03-26T18:41:49.847Z,102072.50
2019-03-26T18:44:19.124Z,102074.67
2019-03-26T18:46:51.404Z,102080.35
2019-03-26T18:49:20.888Z,102079.53
2019-03-26T18:51:50.091Z,102087.02
2019-03-26T18:54:19.268Z,102093.97
2019-03-26T18:56:49.086Z,102095.77
2019-03-26T18:59:18.191Z,102104.98
2019-03-26T19:01:47.334Z,102115.67
2019-03-26T19:04:16.466Z,102113.19
2019-03-26T19:06:45.617Z,102098.30
2019-03-26T19:09:15.031Z,102099.72
2019-03-26T19:11:44.485Z,102099.81
2019-03-26T19:14:13.656Z,102108.58
2019-03-26T19:16:43.191Z,102116.06
2019-03-26T19:19:12.607Z,102123.06
2019-03-26T19:21:41.758Z,102110.38
2019-03-26T19:24:12.641Z,102112.16
2019-03-26T19:26:41.812Z,102111.70
2019-03-26T19:29:12.257Z,102117.84
2019-03-26T19:31:42.446Z,102124.84
2019-03-26T19:34:11.961Z,102128.75
2019-03-26T19:36:43.503Z,102132.28
2019-03-26T19:39:14.289Z,102129.20
2019-03-26T19:41:46.479Z,102132.68
2019-03-26T19:44:18.003Z,102131.41
2019-03-26T19:46:47.522Z,102130.52
2019-03-26T19:49:17.119Z,102134.47
2019-03-26T19:51:50.253Z,102128.78
2019-03-26T19:54:19.499Z,102124.84
2019-03-26T19:56:49.373Z,102127.47
2019-03-26T19:59:20.580Z,102130.09
2019-03-26T20:01:50.243Z,102130.97
2019-03-26T20:04:19.392Z,102141.03
2019-03-26T20:06:51.985Z,102142.81
2019-03-26T20:09:21.462Z,102137.55
2019-03-26T20:11:50.744Z,102134.92
2019-03-26T20:14:20.114Z,102136.21
2019-03-26T20:16:49.941Z,102143.19
2019-03-26T20:19:22.364Z,102142.78
2019-03-26T20:21:51.521Z,102141.03
2019-03-26T20:24:24.986Z,102141.48
2019-03-26T20:26:54.767Z,102140.58
2019-03-26T20:29:27.460Z,102149.77
2019-03-26T20:31:57.617Z,102156.33
2019-03-26T20:34:26.863Z,102147.16
2019-03-26T20:36:58.070Z,102159.86
2019-03-26T20:39:27.698Z,102159.86
2019-03-26T20:41:58.220Z,102169.48
2019-03-26T20:44:27.407Z,102173.00
2019-03-26T20:47:02.260Z,102181.34
2019-03-26T20:49:31.451Z,102187.91
2019-03-26T20:52:00.648Z,102193.16
2019-03-26T20:54:30.950Z,102194.91
2019-03-26T20:57:00.126Z,102187.45
2019-03-26T20:59:29.488Z,102195.36
2019-03-26T21:02:02.298Z,102185.28
2019-03-26T21:04:31.787Z,102186.59
2019-03-26T21:07:01.666Z,102190.98
2019-03-26T21:09:30.844Z,102184.41
2019-03-26T21:12:00.632Z,102184.85
2019-03-26T21:14:29.807Z,102200.16
2019-03-26T21:16:59.777Z,102191.84
2019-03-26T21:19:29.004Z,102190.53
2019-03-26T21:21:58.819Z,102194.48
2019-03-26T21:24:28.358Z,102194.00
2019-03-26T21:26:57.829Z,102190.06
2019-03-26T21:29:27.747Z,102187.40
2019-03-26T21:31:57.501Z,102189.13
2019-03-26T21:34:30.892Z,102193.08
2019-03-26T21:37:00.750Z,102190.92
2019-03-26T21:39:29.962Z,102187.42
2019-03-26T21:41:59.883Z,102202.31
2019-03-26T21:44:29.389Z,102198.38
2019-03-26T21:46:58.575Z,102197.95
2019-03-26T21:49:27.810Z,102200.59
2019-03-26T21:51:57.265Z,102199.27
2019-03-26T21:54:26.803Z,102203.66
2019-03-26T21:56:56.675Z,102202.33
2019-03-26T21:59:28.442Z,102204.09
2019-03-26T22:01:57.711Z,102203.20
2019-03-26T22:04:26.908Z,102206.72
2019-03-26T22:06:59.956Z,102205.41
2019-03-26T22:09:29.490Z,102201.92
2019-03-26T22:12:02.156Z,102198.84
2019-03-26T22:14:31.551Z,102203.20
2019-03-26T22:17:01.361Z,102199.28
2019-03-26T22:19:30.976Z,102201.03
2019-03-26T22:22:00.524Z,102207.62
2019-03-26T22:24:30.114Z,102211.99
2019-03-26T22:26:59.264Z,102207.62
2019-03-26T22:29:28.468Z,102211.09
2019-03-26T22:31:57.667Z,102212.80
2019-03-26T22:34:26.822Z,102215.46
2019-03-26T22:36:56.243Z,102211.06
2019-03-26T22:39:26.986Z,102222.85
2019-03-26T22:41:59.770Z,102223.27
2019-03-26T22:44:31.656Z,102215.39
2019-03-26T22:47:00.113Z,102217.16
2019-03-26T22:49:29.559Z,102221.09
2019-03-26T22:51:59.361Z,102214.08
2019-03-26T22:54:28.560Z,102222.38
2019-03-26T22:56:57.986Z,102221.02
2019-03-26T22:59:27.437Z,102218.84
2019-03-26T23:01:56.682Z,102217.50
2019-03-26T23:04:29.496Z,102219.67
2019-03-26T23:06:58.764Z,102222.74
2019-03-26T23:09:28.541Z,102219.70
2019-03-26T23:11:58.023Z,102219.26
2019-03-26T23:14:27.764Z,102219.70
2019-03-26T23:16:56.940Z,102224.47
2019-03-26T23:19:26.079Z,102226.67
2019-03-26T23:21:59.081Z,102231.47
2019-03-26T23:24:28.572Z,102234.50
2019-03-26T23:26:57.765Z,102231.88
2019-03-26T23:29:27.194Z,102231.43
2019-03-26T23:32:00.182Z,102228.39
2019-03-26T23:34:30.028Z,102230.12
2019-03-26T23:37:02.520Z,102223.56
2019-03-26T23:39:31.663Z,102223.14
2019-03-26T23:42:01.041Z,102227.49
2019-03-26T23:44:33.593Z,102236.72
2019-03-26T23:47:04.985Z,102242.42
2019-03-26T23:49:34.134Z,102236.31
2019-03-26T23:52:03.618Z,102236.72
2019-03-26T23:54:32.789Z,102236.27
2019-03-26T23:57:02.207Z,102238.89
2019-03-26T23:59:32.849Z,102238.43
